createdAt,value
2022-12-29T00:03:51.969Z,95766.03
2022-12-29T00:06:20.377Z,95753.88
2022-12-29T00:08:48.259Z,95753.47
2022-12-29T00:11:19.027Z,95757.78
2022-12-29T00:14:05.269Z,95755.47
2022-12-29T00:16:37.432Z,95759.81
2022-12-29T00:19:06.762Z,95743.31
2022-12-29T00:22:04.194Z,95748.88
2022-12-29T00:24:49.808Z,95741.78
2022-12-29T00:27:35.503Z,95744.19
2022-12-29T00:30:28.977Z,95744.25
2022-12-29T00:33:15.864Z,95743.56
2022-12-29T00:35:50.467Z,95748.72
2022-12-29T00:38:36.200Z,95739.78
2022-12-29T00:41:21.630Z,95740.97
2022-12-29T00:44:07.829Z,95726.84
2022-12-29T00:46:37.809Z,95735.91
2022-12-29T00:49:26.455Z,95732.81
2022-12-29T00:51:55.181Z,95739.13
2022-12-29T00:54:23.495Z,95729.00
2022-12-29T00:56:52.734Z,95728.94
2022-12-29T00:59:21.898Z,95726.63
2022-12-29T01:01:50.325Z,95714.84
2022-12-29T01:04:20.250Z,95716.81
2022-12-29T01:06:48.273Z,95714.03
2022-12-29T01:09:33.239Z,95716.00
2022-12-29T01:12:02.021Z,95712.88
2022-12-29T01:14:29.945Z,95711.69
2022-12-29T01:16:58.265Z,95707.34
2022-12-29T01:19:27.947Z,95716.78
2022-12-29T01:21:56.107Z,95718.84
2022-12-29T01:24:25.216Z,95721.22
2022-12-29T01:26:53.357Z,95713.44
2022-12-29T01:29:21.282Z,95725.25
2022-12-29T01:31:50.685Z,95724.41
2022-12-29T01:34:19.365Z,95719.72
2022-12-29T01:36:49.047Z,95717.34
2022-12-29T01:39:16.889Z,95716.53
2022-12-29T01:41:45.685Z,95718.91
2022-12-29T01:44:52.971Z,95713.44
2022-12-29T01:47:32.355Z,95718.97
2022-12-29T01:50:07.313Z,95719.03
2022-12-29T01:52:41.544Z,95720.66
2022-12-29T01:55:12.471Z,95728.88
2022-12-29T01:57:46.382Z,95730.81
2022-12-29T02:00:16.179Z,95725.72
2022-12-29T02:02:52.358Z,95725.72
2022-12-29T02:05:29.452Z,95725.22
2022-12-29T02:07:58.977Z,95724.41
2022-12-29T02:10:30.168Z,95721.16
2022-12-29T02:12:58.865Z,95727.09
2022-12-29T02:15:45.527Z,95718.03
2022-12-29T02:18:27.480Z,95722.28
2022-12-29T02:21:29.787Z,95708.94
2022-12-29T02:24:33.888Z,95703.00
2022-12-29T02:27:31.185Z,95709.56
2022-12-29T02:30:08.083Z,95717.81
2022-12-29T02:32:47.900Z,95716.28
2022-12-29T02:35:31.820Z,95705.31
2022-12-29T02:38:20.492Z,95702.63
2022-12-29T02:40:55.903Z,95712.38
2022-12-29T02:43:33.077Z,95706.13
2022-12-29T02:46:13.263Z,95697.41
2022-12-29T02:48:49.814Z,95695.19
2022-12-29T02:51:26.075Z,95696.25
2022-12-29T02:54:13.533Z,95692.03
2022-12-29T02:56:42.365Z,95681.78
2022-12-29T02:59:13.917Z,95682.97
2022-12-29T03:02:26.189Z,95683.34
2022-12-29T03:05:23.347Z,95678.97
2022-12-29T03:08:04.200Z,95677.84
2022-12-29T03:10:43.436Z,95680.16
2022-12-29T03:13:41.381Z,95673.06
2022-12-29T03:16:21.223Z,95662.78
2022-12-29T03:18:58.711Z,95662.09
2022-12-29T03:21:54.192Z,95650.34
2022-12-29T03:24:27.575Z,95655.41
2022-12-29T03:26:59.972Z,95663.59
2022-12-29T03:29:33.167Z,95659.78
2022-12-29T03:32:05.130Z,95657.78
2022-12-29T03:34:35.951Z,95666.88
2022-12-29T03:37:10.412Z,95661.34
2022-12-29T03:39:39.652Z,95659.34
2022-12-29T03:42:15.185Z,95661.69
2022-12-29T03:44:46.279Z,95662.94
2022-12-29T03:47:16.505Z,95657.38
2022-12-29T03:49:45.108Z,95655.00
2022-12-29T03:52:14.320Z,95656.59
2022-12-29T03:54:42.631Z,95662.53
2022-12-29T03:57:11.281Z,95660.47
2022-12-29T03:59:39.175Z,95658.16
2022-12-29T04:02:07.622Z,95662.91
2022-12-29T04:04:35.653Z,95655.09
2022-12-29T04:07:04.021Z,95652.34
2022-12-29T04:09:33.197Z,95663.00
2022-12-29T04:12:01.327Z,95655.09
2022-12-29T04:14:29.199Z,95644.56
2022-12-29T04:16:57.084Z,95648.53
2022-12-29T04:19:25.050Z,95645.72
2022-12-29T04:21:53.255Z,95637.09
2022-12-29T04:24:21.292Z,95635.53
2022-12-29T04:26:50.950Z,95641.00
2022-12-29T04:29:18.869Z,95640.28
2022-12-29T04:31:46.922Z,95645.72
2022-12-29T04:34:15.498Z,95642.16
2022-12-29T04:36:43.377Z,95639.41
2022-12-29T04:39:11.691Z,95632.31
2022-12-29T04:41:40.061Z,95638.63
2022-12-29T04:44:09.315Z,95636.69
2022-12-29T04:46:39.399Z,95645.00
2022-12-29T04:49:09.733Z,95632.75
2022-12-29T04:51:38.107Z,95626.53
2022-12-29T04:54:06.060Z,95623.31
2022-12-29T04:56:34.058Z,95626.81
2022-12-29T04:59:01.965Z,95628.44
2022-12-29T05:01:31.210Z,95631.50
2022-12-29T05:03:59.749Z,95625.72
2022-12-29T05:06:27.643Z,95621.31
2022-12-29T05:08:55.519Z,95632.28
2022-12-29T05:11:23.434Z,95631.50
2022-12-29T05:13:51.621Z,95624.84
2022-12-29T05:16:19.524Z,95622.88
2022-12-29T05:18:49.381Z,95629.91
2022-12-29T05:21:17.283Z,95633.03
2022-12-29T05:23:45.278Z,95642.41
2022-12-29T05:26:13.231Z,95644.25
2022-12-29T05:28:41.420Z,95650.16
2022-12-29T05:31:09.359Z,95650.97
2022-12-29T05:33:37.726Z,95651.78
2022-12-29T05:36:09.271Z,95652.50
2022-12-29T05:38:38.122Z,95646.22
2022-12-29T05:41:06.449Z,95642.28
2022-12-29T05:43:34.673Z,95648.50
2022-12-29T05:46:03.011Z,95653.69
2022-12-29T05:48:37.548Z,95657.22
2022-12-29T05:51:07.891Z,95654.75
2022-12-29T05:53:35.990Z,95654.75
2022-12-29T05:56:03.889Z,95660.34
2022-12-29T05:58:32.135Z,95658.78
2022-12-29T06:01:00.727Z,95663.31
2022-12-29T06:03:28.731Z,95650.38
2022-12-29T06:05:56.782Z,95650.81
2022-12-29T06:08:25.989Z,95657.81
2022-12-29T06:10:53.863Z,95650.75
2022-12-29T06:13:22.030Z,95653.16
2022-12-29T06:15:50.436Z,95657.81
2022-12-29T06:18:20.471Z,95661.00
2022-12-29T06:20:48.490Z,95656.31
2022-12-29T06:23:17.546Z,95661.91
2022-12-29T06:25:47.631Z,95654.06
2022-12-29T06:28:15.492Z,95654.88
2022-12-29T06:30:45.793Z,95658.09
2022-12-29T06:33:13.676Z,95657.38
2022-12-29T06:35:43.519Z,95652.28
2022-12-29T06:38:12.066Z,95648.78
2022-12-29T06:40:40.627Z,95644.47
2022-12-29T06:43:09.873Z,95643.28
2022-12-29T06:45:40.425Z,95637.81
2022-12-29T06:48:09.456Z,95649.28
2022-12-29T06:50:37.452Z,95652.38
2022-12-29T06:53:05.569Z,95646.50
2022-12-29T06:55:33.413Z,95659.09
2022-12-29T06:58:02.608Z,95634.78
2022-12-29T07:00:32.227Z,95654.41
2022-12-29T07:03:00.263Z,95652.78
2022-12-29T07:05:28.941Z,95657.50
2022-12-29T07:07:57.523Z,95647.31
2022-12-29T07:10:27.870Z,95657.50
2022-12-29T07:12:55.802Z,95648.09
2022-12-29T07:15:23.714Z,95647.31
2022-12-29T07:17:53.007Z,95657.59
2022-12-29T07:20:26.568Z,95653.69
2022-12-29T07:22:55.318Z,95656.13
2022-12-29T07:25:23.739Z,95649.44
2022-12-29T07:27:51.961Z,95654.97
2022-12-29T07:30:20.383Z,95656.97
2022-12-29T07:32:48.280Z,95649.06
2022-12-29T07:35:17.679Z,95658.50
2022-12-29T07:37:45.663Z,95654.22
2022-12-29T07:40:14.503Z,95653.00
2022-12-29T07:42:42.311Z,95654.94
2022-12-29T07:45:19.775Z,95656.09
2022-12-29T07:47:49.993Z,95664.31
2022-12-29T07:50:20.449Z,95663.13
2022-12-29T07:52:49.340Z,95663.13
2022-12-29T07:55:17.631Z,95670.22
2022-12-29T07:57:45.473Z,95660.81
2022-12-29T08:00:14.612Z,95662.84
2022-12-29T08:02:42.924Z,95658.16
2022-12-29T08:05:11.118Z,95668.81
2022-12-29T08:07:40.473Z,95659.38
2022-12-29T08:10:12.673Z,95664.88
2022-12-29T08:12:42.122Z,95665.66
2022-12-29T08:15:11.957Z,95665.63
2022-12-29T08:17:40.691Z,95672.34
2022-12-29T08:20:10.663Z,95678.28
2022-12-29T08:22:40.125Z,95685.75
2022-12-29T08:25:08.875Z,95682.56
2022-12-29T08:27:36.820Z,95679.84
2022-12-29T08:30:05.752Z,95683.78
2022-12-29T08:32:33.658Z,95678.28
2022-12-29T08:35:01.595Z,95680.66
2022-12-29T08:37:31.477Z,95682.28
2022-12-29T08:40:04.560Z,95676.00
2022-12-29T08:42:32.898Z,95681.56
2022-12-29T08:45:01.615Z,95691.03
2022-12-29T08:47:30.070Z,95680.06
2022-12-29T08:49:58.414Z,95674.53
2022-12-29T08:52:26.294Z,95676.94
2022-12-29T08:54:54.232Z,95679.28
2022-12-29T08:57:23.867Z,95679.69
2022-12-29T08:59:52.157Z,95676.97
2022-12-29T09:02:24.364Z,95685.63
2022-12-29T09:04:53.321Z,95681.66
2022-12-29T09:07:21.291Z,95681.63
2022-12-29T09:09:49.549Z,95672.59
2022-12-29T09:12:18.331Z,95673.00
2022-12-29T09:14:48.393Z,95682.06
2022-12-29T09:17:34.095Z,95681.31
2022-12-29T09:20:02.385Z,95680.13
2022-12-29T09:22:30.345Z,95675.41
2022-12-29T09:24:58.270Z,95687.28
2022-12-29T09:27:28.541Z,95677.44
2022-12-29T09:29:58.444Z,95682.56
2022-12-29T09:32:32.638Z,95684.13
2022-12-29T09:35:02.097Z,95684.53
2022-12-29T09:37:30.198Z,95693.22
2022-12-29T09:39:58.471Z,95687.69
2022-12-29T09:42:34.574Z,95685.34
2022-12-29T09:45:16.207Z,95681.78
2022-12-29T09:47:47.265Z,95676.28
2022-12-29T09:50:25.922Z,95686.50
2022-12-29T09:55:54.053Z,95674.69
2022-12-29T09:58:31.017Z,95660.09
2022-12-29T10:01:07.720Z,95660.47
2022-12-29T10:03:48.845Z,95664.38
2022-12-29T10:06:24.473Z,95664.41
2022-12-29T10:09:04.721Z,95653.34
2022-12-29T10:11:51.945Z,95658.09
2022-12-29T10:14:40.717Z,95666.78
2022-12-29T10:17:24.696Z,95655.34
2022-12-29T10:20:07.560Z,95647.06
2022-12-29T10:22:51.755Z,95652.19
2022-12-29T10:25:25.114Z,95656.53
2022-12-29T10:28:01.422Z,95653.38
2022-12-29T10:30:30.945Z,95656.16
2022-12-29T10:33:03.786Z,95654.53
2022-12-29T10:35:39.932Z,95648.63
2022-12-29T10:38:21.718Z,95651.75
2022-12-29T10:40:59.221Z,95642.25
2022-12-29T10:43:30.102Z,95638.66
2022-12-29T10:46:04.618Z,95644.47
2022-12-29T10:48:36.882Z,95634.16
2022-12-29T10:51:08.430Z,95617.50
2022-12-29T10:53:45.576Z,95628.59
2022-12-29T10:56:27.577Z,95636.06
2022-12-29T10:58:59.104Z,95628.53
2022-12-29T11:01:39.506Z,95617.91
2022-12-29T11:04:29.744Z,95629.25
2022-12-29T11:06:59.374Z,95621.31
2022-12-29T11:09:41.981Z,95614.94
2022-12-29T11:12:24.978Z,95609.09
2022-12-29T11:15:15.892Z,95618.22
2022-12-29T11:17:49.387Z,95624.56
2022-12-29T11:20:35.873Z,95619.00
2022-12-29T11:23:05.940Z,95613.50
2022-12-29T11:25:34.413Z,95605.56
2022-12-29T11:28:05.252Z,95620.19
2022-12-29T11:30:34.362Z,95620.56
2022-12-29T11:33:06.547Z,95621.00
2022-12-29T11:35:41.733Z,95636.81
2022-12-29T11:38:23.526Z,95629.28
2022-12-29T11:40:52.092Z,95621.00
2022-12-29T11:43:34.558Z,95619.81
2022-12-29T11:46:04.880Z,95602.44
2022-12-29T11:48:41.437Z,95602.44
2022-12-29T11:51:13.381Z,95602.81
2022-12-29T11:53:47.959Z,95600.84
2022-12-29T11:56:19.539Z,95604.81
2022-12-29T11:58:50.663Z,95601.59
2022-12-29T12:01:25.402Z,95612.28
2022-12-29T12:04:03.505Z,95598.44
2022-12-29T12:06:39.165Z,95607.50
2022-12-29T12:09:17.066Z,95610.28
2022-12-29T12:14:40.669Z,95615.75
2022-12-29T12:17:16.733Z,95609.44
2022-12-29T12:19:56.187Z,95597.59
2022-12-29T12:22:33.761Z,95599.19
2022-12-29T12:25:07.927Z,95586.53
2022-12-29T12:27:47.282Z,95590.44
2022-12-29T12:30:19.141Z,95591.59
2022-12-29T12:32:54.837Z,95584.84
2022-12-29T12:35:37.051Z,95585.59
2022-12-29T12:38:26.815Z,95588.81
2022-12-29T12:41:10.661Z,95588.81
2022-12-29T12:43:48.034Z,95578.94
2022-12-29T12:46:51.533Z,95585.66
2022-12-29T12:50:00.884Z,95590.00
2022-12-29T12:52:41.236Z,95588.88
2022-12-29T12:55:35.173Z,95587.59
2022-12-29T12:58:19.700Z,95594.75
2022-12-29T13:01:05.822Z,95596.81
2022-12-29T13:04:01.876Z,95595.63
2022-12-29T13:06:47.055Z,95596.44
2022-12-29T13:09:45.035Z,95590.53
2022-12-29T13:12:29.060Z,95592.16
2022-12-29T13:15:14.598Z,95585.44
2022-12-29T13:17:52.570Z,95598.44
2022-12-29T13:20:33.724Z,95585.78
2022-12-29T13:23:15.700Z,95587.81
2022-12-29T13:25:56.666Z,95589.72
2022-12-29T13:28:34.641Z,95590.13
2022-12-29T13:31:17.042Z,95601.94
2022-12-29T13:33:58.006Z,95595.25
2022-12-29T13:36:31.649Z,95602.72
2022-12-29T13:39:10.306Z,95598.00
2022-12-29T13:41:45.398Z,95602.34
2022-12-29T13:44:23.190Z,95595.22
2022-12-29T13:46:52.963Z,95609.41
2022-12-29T13:49:25.862Z,95599.56
2022-12-29T13:51:57.486Z,95614.94
2022-12-29T13:54:37.542Z,95607.06
2022-12-29T13:57:14.537Z,95615.00
2022-12-29T13:59:52.973Z,95607.88
2022-12-29T14:02:34.739Z,95598.09
2022-12-29T14:05:06.055Z,95616.66
2022-12-29T14:07:40.623Z,95612.78
2022-12-29T14:10:26.155Z,95617.56
2022-12-29T14:13:05.705Z,95630.19
2022-12-29T14:15:42.083Z,95631.00
2022-12-29T14:18:34.716Z,95623.13
2022-12-29T14:21:11.653Z,95630.25
2022-12-29T14:23:41.989Z,95627.06
2022-12-29T14:26:19.623Z,95631.03
2022-12-29T14:29:17.724Z,95631.06
2022-12-29T14:31:47.225Z,95620.81
2022-12-29T14:34:41.884Z,95627.91
2022-12-29T14:37:27.996Z,95620.84
2022-12-29T14:40:18.550Z,95620.03
2022-12-29T14:42:48.642Z,95623.63
2022-12-29T14:45:30.444Z,95624.78
2022-12-29T14:48:00.300Z,95615.34
2022-12-29T14:50:44.209Z,95620.47
2022-12-29T14:57:39.952Z,95621.69
2022-12-29T15:00:19.126Z,95615.34
2022-12-29T15:02:52.216Z,95615.34
2022-12-29T15:05:37.144Z,95609.44
2022-12-29T15:08:08.268Z,95614.56
2022-12-29T15:10:47.451Z,95618.91
2022-12-29T15:13:19.095Z,95617.75
2022-12-29T15:16:27.724Z,95617.34
2022-12-29T15:23:03.268Z,95606.69
2022-12-29T15:25:33.134Z,95611.81
2022-12-29T15:28:05.516Z,95617.75
2022-12-29T15:30:34.344Z,95617.75
2022-12-29T15:33:04.181Z,95614.63
2022-12-29T15:35:35.622Z,95615.78
2022-12-29T15:38:17.805Z,95614.22
2022-12-29T15:40:56.525Z,95618.91
2022-12-29T15:43:47.003Z,95615.00
2022-12-29T15:46:16.938Z,95622.47
2022-12-29T15:48:45.772Z,95609.88
2022-12-29T15:51:22.175Z,95626.41
2022-12-29T15:57:59.869Z,95619.34
2022-12-29T16:00:30.864Z,95621.72
2022-12-29T16:03:02.269Z,95637.53
2022-12-29T16:05:35.351Z,95633.19
2022-12-29T16:08:04.205Z,95639.44
2022-12-29T16:10:38.335Z,95635.13
2022-12-29T16:13:35.495Z,95632.78
2022-12-29T16:16:16.308Z,95645.38
2022-12-29T16:22:58.501Z,95638.69
2022-12-29T16:25:32.523Z,95638.28
2022-12-29T16:28:01.852Z,95633.56
2022-12-29T16:30:34.513Z,95639.84
2022-12-29T16:33:05.220Z,95637.88
2022-12-29T16:35:47.429Z,95629.66
2022-12-29T16:38:18.122Z,95649.75
2022-12-29T16:40:54.360Z,95653.69
2022-12-29T16:43:29.384Z,95649.34
2022-12-29T16:49:06.433Z,95640.66
2022-12-29T16:51:38.573Z,95642.97
2022-12-29T16:54:08.794Z,95652.47
2022-12-29T16:56:39.902Z,95660.69
2022-12-29T16:59:21.499Z,95657.19
2022-12-29T17:01:51.628Z,95651.72
2022-12-29T17:04:19.904Z,95655.59
2022-12-29T17:06:48.128Z,95648.50
2022-12-29T17:09:20.709Z,95648.50
2022-12-29T17:12:02.974Z,95638.25
2022-12-29T17:14:42.662Z,95637.44
2022-12-29T17:17:19.211Z,95631.16
2022-12-29T17:19:53.020Z,95632.78
2022-12-29T17:22:26.260Z,95631.56
2022-12-29T17:24:55.854Z,95628.38
2022-12-29T17:27:32.078Z,95624.81
2022-12-29T17:30:05.529Z,95631.91
2022-12-29T17:32:35.463Z,95646.19
2022-12-29T17:35:04.296Z,95633.91
2022-12-29T17:37:38.333Z,95642.63
2022-12-29T17:40:09.626Z,95657.25
2022-12-29T17:42:44.316Z,95659.22
2022-12-29T17:45:18.231Z,95660.03
2022-12-29T17:47:48.791Z,95669.09
2022-12-29T17:50:26.184Z,95678.56
2022-12-29T17:53:27.061Z,95676.97
2022-12-29T17:56:01.950Z,95701.03
2022-12-29T18:01:33.958Z,95701.91
2022-12-29T18:04:06.076Z,95714.13
2022-12-29T18:06:34.249Z,95701.13
2022-12-29T18:09:02.250Z,95715.69
2022-12-29T18:11:30.314Z,95711.78
2022-12-29T18:13:58.437Z,95711.34
2022-12-29T18:16:27.012Z,95705.84
2022-12-29T18:18:55.035Z,95713.69
2022-12-29T18:21:26.248Z,95704.63
2022-12-29T18:23:54.193Z,95707.00
2022-12-29T18:26:28.008Z,95707.38
2022-12-29T18:28:57.370Z,95713.31
2022-12-29T18:31:27.687Z,95714.09
2022-12-29T18:33:58.959Z,95721.56
2022-12-29T18:36:30.176Z,95718.41
2022-12-29T18:38:58.430Z,95710.53
2022-12-29T18:41:29.718Z,95706.59
2022-12-29T18:43:58.376Z,95724.34
2022-12-29T18:46:26.903Z,95718.00
2022-12-29T18:48:55.109Z,95700.66
2022-12-29T18:51:26.574Z,95715.63
2022-12-29T18:53:56.022Z,95713.28
2022-12-29T18:56:26.114Z,95716.03
2022-12-29T18:58:55.589Z,95710.13
2022-12-29T19:01:26.043Z,95718.03
2022-12-29T19:03:55.860Z,95720.78
2022-12-29T19:06:24.666Z,95718.78
2022-12-29T19:08:53.099Z,95704.63
2022-12-29T19:11:24.404Z,95701.47
2022-12-29T19:14:03.960Z,95687.69
2022-12-29T19:16:33.347Z,95737.34
2022-12-29T19:19:14.011Z,95729.03
2022-12-29T19:21:42.374Z,95736.94
2022-12-29T19:24:11.191Z,95730.25
2022-12-29T19:26:43.270Z,95727.47
2022-12-29T19:29:16.667Z,95722.75
2022-12-29T19:31:44.801Z,95747.59
2022-12-29T19:34:17.883Z,95741.66
2022-12-29T19:36:59.647Z,95744.03
2022-12-29T19:39:44.090Z,95740.88
2022-12-29T19:42:13.765Z,95740.88
2022-12-29T19:44:42.480Z,95744.03
2022-12-29T19:47:20.709Z,95738.09
2022-12-29T19:49:49.778Z,95728.28
2022-12-29T19:52:18.055Z,95737.72
2022-12-29T19:54:46.518Z,95747.19
2022-12-29T19:57:18.797Z,95739.28
2022-12-29T19:59:47.474Z,95758.59
2022-12-29T20:02:22.076Z,95745.59
2022-12-29T20:19:41.868Z,95736.09
2022-12-29T20:22:12.168Z,95751.09
2022-12-29T20:25:11.174Z,95741.63
2022-12-29T20:27:41.103Z,95737.66
2022-12-29T20:30:10.469Z,95743.97
2022-12-29T20:32:39.119Z,95746.72
2022-12-29T20:35:10.029Z,95761.28
2022-12-29T20:37:38.300Z,95738.41
2022-12-29T20:40:09.101Z,95748.63
2022-12-29T20:42:37.338Z,95746.25
2022-12-29T20:45:06.089Z,95762.00
2022-12-29T20:47:34.286Z,95742.25
2022-12-29T20:50:02.583Z,95751.34
2022-12-29T20:58:23.830Z,95740.22
2022-12-29T21:00:52.837Z,95743.78
2022-12-29T21:03:20.890Z,95742.56
2022-12-29T21:05:49.018Z,95742.16
2022-12-29T21:08:18.653Z,95735.03
2022-12-29T21:10:48.431Z,95744.44
2022-12-29T21:13:17.628Z,95740.97
2022-12-29T21:15:46.306Z,95742.16
2022-12-29T21:18:15.077Z,95749.97
2022-12-29T21:20:43.154Z,95761.00
2022-12-29T21:23:11.255Z,95757.03
2022-12-29T21:25:45.367Z,95757.69
2022-12-29T21:28:13.442Z,95760.09
2022-12-29T21:30:42.400Z,95752.97
2022-12-29T21:33:10.793Z,95752.56
2022-12-29T21:35:39.993Z,95740.34
2022-12-29T21:38:08.965Z,95749.03
2022-12-29T21:40:38.968Z,95758.47
2022-12-29T21:43:09.070Z,95763.25
2022-12-29T21:45:36.537Z,95771.88
2022-12-29T21:48:24.311Z,95768.69
2022-12-29T21:51:13.225Z,95783.19
2022-12-29T21:53:43.754Z,95791.47
2022-12-29T21:56:14.691Z,95799.31
2022-12-29T21:59:05.430Z,95799.31
2022-12-29T22:01:54.073Z,95785.88
2022-12-29T22:04:42.285Z,95795.78
2022-12-29T22:07:31.092Z,95808.69
2022-12-29T22:10:18.896Z,95806.19
2022-12-29T22:13:03.214Z,95818.81
2022-12-29T22:15:36.044Z,95816.38
2022-12-29T22:18:06.601Z,95830.50
2022-12-29T22:20:37.195Z,95836.78
2022-12-29T22:23:05.275Z,95840.34
2022-12-29T22:25:36.192Z,95839.44
2022-12-29T22:28:04.297Z,95847.31
2022-12-29T22:30:34.547Z,95850.03
2022-12-29T22:33:02.727Z,95848.41
2022-12-29T22:35:30.766Z,95862.16
2022-12-29T22:37:58.966Z,95866.44
2022-12-29T22:40:27.356Z,95867.19
2022-12-29T22:42:55.493Z,95876.63
2022-12-29T22:45:23.592Z,95863.16
2022-12-29T22:47:53.444Z,95876.91
2022-12-29T22:50:21.533Z,95881.13
2022-12-29T22:52:50.019Z,95889.41
2022-12-29T22:55:18.278Z,95880.25
2022-12-29T22:57:46.391Z,95883.84
2022-12-29T23:00:14.825Z,95884.53
2022-12-29T23:02:43.237Z,95892.00
2022-12-29T23:05:13.539Z,95882.88
2022-12-29T23:07:41.550Z,95878.69
2022-12-29T23:10:10.228Z,95881.94
2022-12-29T23:12:38.553Z,95874.06
2022-12-29T23:15:07.712Z,95872.34
2022-12-29T23:17:36.781Z,95879.97
2022-12-29T23:20:06.584Z,95880.59
2022-12-29T23:22:36.139Z,95886.53
2022-12-29T23:25:04.303Z,95886.91
2022-12-29T23:27:32.341Z,95890.75
2022-12-29T23:30:00.315Z,95888.75
2022-12-29T23:32:28.404Z,95897.16
2022-12-29T23:34:56.457Z,95884.91
2022-12-29T23:37:25.092Z,95883.75
2022-12-29T23:39:54.503Z,95881.25
2022-12-29T23:42:22.627Z,95889.13
2022-12-29T23:44:50.608Z,95890.19
2022-12-29T23:47:19.087Z,95882.38
2022-12-29T23:49:47.160Z,95888.28
2022-12-29T23:52:15.574Z,95907.25
2022-12-29T23:57:31.336Z,95911.06
2022-12-29T23:59:59.781Z,95912.97
